Time;durP1;ratioP1;P1;durP2;ratioP2;P2;SDS_P1;SDS_P2;PMS_P1;PMS_P2;Temp;Humidity;BMP_temperature;BMP_pressure;BME280_temperature;BME280_humidity;BME280_pressure;Samples;Min_cycle;Max_cycle;Signal;HPM_P1;HPM_P2
2022/05/27 00:00:18;;;;;;;7.90;5.03;;;13.90;99.90;;;;;;5059265;28;20699;-53
2022/05/27 00:02:45;;;;;;;12.25;5.25;;;13.90;99.90;;;;;;5059110;28;20453;-55
2022/05/27 00:05:12;;;;;;;9.57;5.70;;;13.90;99.90;;;;;;5054453;28;20663;-52
2022/05/27 00:07:37;;;;;;;8.85;5.60;;;13.90;99.90;;;;;;5070504;28;20403;-52
2022/05/27 00:10:04;;;;;;;9.77;5.25;;;13.90;99.90;;;;;;5070322;28;20392;-54
2022/05/27 00:12:29;;;;;;;10.02;5.70;;;13.90;99.90;;;;;;5053069;28;20387;-52
2022/05/27 00:14:55;;;;;;;11.13;5.22;;;13.90;99.90;;;;;;5053500;28;20383;-53
2022/05/27 00:17:21;;;;;;;9.00;5.10;;;13.90;99.90;;;;;;5052725;28;20391;-51
2022/05/27 00:19:46;;;;;;;12.00;5.53;;;13.90;99.90;;;;;;5051794;28;20408;-54
2022/05/27 00:22:12;;;;;;;10.30;5.23;;;13.90;99.90;;;;;;5053940;28;20458;-54
2022/05/27 00:24:38;;;;;;;7.70;4.53;;;13.90;99.90;;;;;;5055449;28;20482;-53
2022/05/27 00:27:05;;;;;;;11.20;5.25;;;13.90;99.90;;;;;;5056290;28;20467;-51
2022/05/27 00:29:31;;;;;;;12.65;4.82;;;13.90;99.90;;;;;;5053741;28;20383;-52
2022/05/27 00:31:56;;;;;;;8.38;4.60;;;13.90;99.90;;;;;;5055445;28;20395;-51
2022/05/27 00:34:22;;;;;;;12.83;5.47;;;13.90;99.90;;;;;;5054212;28;20396;-52
2022/05/27 00:36:47;;;;;;;13.23;5.10;;;13.90;99.90;;;;;;5055071;28;20483;-51
2022/05/27 00:39:13;;;;;;;11.05;4.93;;;13.80;99.90;;;;;;5055647;28;20866;-53
2022/05/27 00:41:41;;;;;;;10.03;4.87;;;13.80;99.90;;;;;;5072840;28;20538;-53
2022/05/27 00:44:07;;;;;;;11.98;5.00;;;13.80;99.90;;;;;;5054704;28;20392;-53
2022/05/27 00:46:34;;;;;;;12.37;5.03;;;13.80;99.90;;;;;;5070622;28;20445;-53
2022/05/27 00:49:09;;;;;;;9.85;4.85;;;13.90;99.90;;;;;;5071541;28;20455;-53
2022/05/27 00:51:49;;;;;;;13.65;4.75;;;13.80;99.90;;;;;;5056032;28;20400;-54
2022/05/27 00:54:18;;;;;;;10.48;4.30;;;13.90;99.90;;;;;;5056493;28;20396;-55
2022/05/27 00:56:49;;;;;;;10.30;4.50;;;13.90;99.90;;;;;;5055690;28;20420;-50
2022/05/27 00:59:25;;;;;;;14.13;4.27;;;13.90;99.90;;;;;;4517611;28;22636;-54
2022/05/27 01:01:52;;;;;;;11.80;4.13;;;13.90;99.90;;;;;;5074314;28;20716;-51
2022/05/27 01:04:19;;;;;;;13.95;4.22;;;13.90;99.90;;;;;;5075790;28;20393;-55
2022/05/27 01:06:45;;;;;;;11.98;4.22;;;13.90;99.90;;;;;;5093754;28;20393;-53
2022/05/27 01:09:12;;;;;;;12.18;3.75;;;13.80;99.90;;;;;;5093301;28;20447;-52
2022/05/27 01:12:15;;;;;;;12.35;3.88;;;13.90;99.90;;;;;;5076226;28;20379;-54
2022/05/27 01:14:59;;;;;;;13.48;3.90;;;13.90;99.90;;;;;;5093017;28;20374;-49
2022/05/27 01:17:52;;;;;;;12.82;3.65;;;13.80;99.90;;;;;;5075575;28;20374;-49
2022/05/27 01:20:35;;;;;;;10.25;3.58;;;13.80;99.90;;;;;;5072851;28;20546;-53
2022/05/27 01:23:22;;;;;;;11.13;3.33;;;13.80;99.90;;;;;;5090654;28;20477;-51
2022/05/27 01:26:10;;;;;;;10.85;3.33;;;13.80;99.90;;;;;;5073559;28;20653;-51
2022/05/27 01:29:03;;;;;;;11.30;3.47;;;13.80;99.90;;;;;;5073069;28;20797;-51
2022/05/27 01:31:46;;;;;;;12.02;3.38;;;13.80;99.90;;;;;;5072255;28;20460;-53
2022/05/27 01:34:18;;;;;;;11.80;3.80;;;13.80;99.90;;;;;;5074188;28;20397;-54
2022/05/27 01:37:03;;;;;;;9.32;2.85;;;13.70;99.90;;;;;;5093004;28;20766;-52
2022/05/27 01:39:43;;;;;;;11.05;3.10;;;13.70;99.90;;;;;;5074980;28;20466;-54
2022/05/27 01:42:21;;;;;;;14.15;3.35;;;13.70;99.90;;;;;;5092572;28;20416;-50
2022/05/27 01:44:58;;;;;;;12.70;3.50;;;13.70;99.90;;;;;;5091041;28;20370;-54
2022/05/27 01:47:42;;;;;;;9.85;2.97;;;13.70;99.90;;;;;;5072813;28;20378;-50
2022/05/27 01:50:16;;;;;;;11.60;3.50;;;13.70;99.90;;;;;;5073905;28;20394;-50
2022/05/27 01:52:56;;;;;;;13.50;3.65;;;13.60;99.90;;;;;;5075259;28;20436;-54
2022/05/27 01:55:49;;;;;;;12.10;2.93;;;13.60;99.90;;;;;;5076420;28;20390;-53
2022/05/27 01:58:24;;;;;;;14.80;4.45;;;13.60;99.90;;;;;;5083506;28;20386;-52
2022/05/27 02:00:50;;;;;;;9.77;3.42;;;13.60;99.90;;;;;;5073385;28;20833;-53
2022/05/27 02:03:55;;;;;;;13.47;3.03;;;13.50;99.90;;;;;;5074490;28;20704;-50
2022/05/27 02:06:27;;;;;;;13.27;3.25;;;13.50;99.90;;;;;;5026579;28;20700;-52
2022/05/27 02:09:03;;;;;;;13.55;3.28;;;13.50;99.90;;;;;;5072826;28;20434;-54
2022/05/27 02:11:29;;;;;;;18.92;3.90;;;13.50;99.90;;;;;;5073191;28;20481;-52
2022/05/27 02:13:59;;;;;;;14.97;3.97;;;13.50;99.90;;;;;;5089748;28;20770;-52
2022/05/27 02:16:32;;;;;;;12.02;3.05;;;13.50;99.90;;;;;;5071784;28;20599;-52
2022/05/27 02:19:07;;;;;;;14.73;3.50;;;13.40;99.90;;;;;;5090083;28;20398;-56
2022/05/27 02:22:00;;;;;;;10.20;3.05;;;13.50;99.90;;;;;;5072503;28;20389;-56
2022/05/27 02:25:04;;;;;;;13.27;3.33;;;13.50;99.90;;;;;;5057512;28;20460;-55
2022/05/27 02:27:39;;;;;;;15.10;3.50;;;13.40;99.90;;;;;;5072767;28;20549;-53
2022/05/27 02:30:09;;;;;;;12.25;3.47;;;13.40;99.90;;;;;;5071522;28;20378;-52
2022/05/27 02:32:39;;;;;;;13.02;3.45;;;13.30;99.90;;;;;;5076415;28;20382;-53
2022/05/27 02:35:15;;;;;;;11.70;2.90;;;13.30;99.90;;;;;;5093901;28;20454;-54
2022/05/27 02:37:47;;;;;;;12.05;3.17;;;13.20;99.90;;;;;;5073550;28;20876;-52
2022/05/27 02:40:28;;;;;;;9.45;3.15;;;13.20;99.90;;;;;;5090925;28;20440;-50
2022/05/27 02:43:18;;;;;;;12.45;3.47;;;13.10;99.90;;;;;;5074743;28;20379;-54
2022/05/27 02:45:55;;;;;;;12.30;3.33;;;13.10;99.90;;;;;;5074532;28;20590;-53
2022/05/27 02:48:42;;;;;;;11.90;3.00;;;13.00;99.90;;;;;;5073810;28;20420;-50
2022/05/27 02:51:13;;;;;;;12.18;3.55;;;13.00;99.90;;;;;;5074299;28;20394;-54
2022/05/27 02:53:55;;;;;;;11.82;3.47;;;13.00;99.90;;;;;;5092929;28;20378;-52
2022/05/27 02:56:26;;;;;;;13.63;3.20;;;13.00;99.90;;;;;;5092857;28;20390;-50
2022/05/27 02:58:53;;;;;;;11.95;3.33;;;13.00;99.90;;;;;;5074880;28;20447;-53
2022/05/27 03:01:19;;;;;;;12.25;2.80;;;13.00;99.90;;;;;;5076520;28;20429;-50
2022/05/27 03:03:45;;;;;;;13.73;3.05;;;13.00;99.90;;;;;;5054528;28;20716;-53
2022/05/27 03:06:54;;;;;;;14.30;3.40;;;13.00;99.90;;;;;;5053857;28;20400;-51
2022/05/27 03:09:35;;;;;;;11.77;3.03;;;13.00;99.90;;;;;;5053487;28;20787;-52
2022/05/27 03:12:15;;;;;;;10.20;3.05;;;13.00;99.90;;;;;;5053048;28;20394;-54
2022/05/27 03:15:08;;;;;;;12.15;2.75;;;13.00;99.90;;;;;;5054031;28;20379;-53
2022/05/27 03:17:56;;;;;;;16.90;3.15;;;12.90;99.90;;;;;;5070597;28;20411;-53
2022/05/27 03:20:29;;;;;;;13.48;3.80;;;12.90;99.90;;;;;;5053167;28;21042;-51
2022/05/27 03:23:13;;;;;;;14.05;2.95;;;12.90;99.90;;;;;;5052336;28;20459;-53
2022/05/27 03:26:01;;;;;;;12.32;3.33;;;12.90;99.90;;;;;;5051709;28;20395;-52
2022/05/27 03:28:41;;;;;;;11.45;3.45;;;12.90;99.90;;;;;;5052447;28;20434;-50
2022/05/27 03:31:10;;;;;;;11.85;2.95;;;12.90;99.90;;;;;;5036262;28;20693;-52
2022/05/27 03:33:48;;;;;;;10.68;2.65;;;12.90;99.90;;;;;;5053416;28;20383;-52
2022/05/27 03:37:09;;;;;;;11.00;2.97;;;12.90;99.90;;;;;;5072272;28;20795;-53
2022/05/27 03:39:47;;;;;;;13.10;2.97;;;12.90;99.90;;;;;;5052000;28;20468;-51
2022/05/27 03:42:13;;;;;;;14.13;2.88;;;12.80;99.90;;;;;;5052182;28;20395;-53
2022/05/27 03:44:55;;;;;;;13.88;3.50;;;12.90;99.90;;;;;;5069884;28;20392;-54
2022/05/27 03:47:21;;;;;;;13.25;3.08;;;12.80;99.90;;;;;;5051446;28;20744;-51
2022/05/27 03:49:47;;;;;;;13.85;3.15;;;12.80;99.90;;;;;;5070164;28;20403;-54
2022/05/27 03:52:19;;;;;;;12.23;3.15;;;12.80;99.90;;;;;;5052475;28;20392;-50
2022/05/27 03:54:45;;;;;;;12.00;3.00;;;12.80;99.90;;;;;;5071911;28;20384;-49
2022/05/27 03:57:11;;;;;;;14.30;3.10;;;12.80;99.90;;;;;;5052932;28;20402;-53
2022/05/27 03:59:37;;;;;;;17.03;3.50;;;12.80;99.90;;;;;;5072466;28;20833;-51
2022/05/27 04:02:03;;;;;;;10.95;3.15;;;12.80;99.90;;;;;;5073116;28;20410;-50
2022/05/27 04:04:29;;;;;;;10.55;2.85;;;12.80;99.90;;;;;;5055273;28;20379;-52
2022/05/27 04:06:55;;;;;;;14.25;2.72;;;12.80;99.90;;;;;;5055181;28;20384;-51
2022/05/27 04:09:23;;;;;;;9.90;2.78;;;12.80;99.90;;;;;;5071124;28;20483;-54
2022/05/27 04:11:49;;;;;;;13.45;3.25;;;12.80;99.90;;;;;;5070615;28;20475;-53
2022/05/27 04:14:15;;;;;;;12.70;3.25;;;12.70;99.90;;;;;;5054035;28;20383;-53
2022/05/27 04:16:40;;;;;;;12.75;3.10;;;12.70;99.90;;;;;;5071154;28;20394;-53
2022/05/27 04:19:06;;;;;;;9.50;2.65;;;12.80;99.90;;;;;;5053337;28;20721;-52
2022/05/27 04:21:32;;;;;;;8.37;2.40;;;12.70;99.90;;;;;;5053589;28;20423;-51
2022/05/27 04:23:58;;;;;;;8.40;2.53;;;12.70;99.90;;;;;;5072521;28;20423;-49
2022/05/27 04:26:24;;;;;;;9.33;2.63;;;12.70;99.90;;;;;;5055889;28;20771;-51
2022/05/27 04:28:50;;;;;;;13.63;2.90;;;12.70;99.90;;;;;;5056762;28;20384;-50
2022/05/27 04:31:15;;;;;;;11.95;2.45;;;12.70;99.90;;;;;;5056908;28;20386;-55
2022/05/27 04:33:41;;;;;;;15.90;3.00;;;12.70;99.90;;;;;;5055448;28;20395;-52
2022/05/27 04:36:07;;;;;;;8.02;2.20;;;12.70;99.90;;;;;;5055933;28;20395;-53
2022/05/27 04:38:34;;;;;;;9.48;2.58;;;12.60;99.90;;;;;;5054287;28;20848;-50
2022/05/27 04:40:59;;;;;;;10.80;3.08;;;12.70;99.90;;;;;;5054654;28;20834;-50
2022/05/27 04:43:25;;;;;;;11.32;2.88;;;12.70;99.90;;;;;;5055750;28;20395;-52
2022/05/27 04:45:50;;;;;;;8.23;2.50;;;12.70;99.90;;;;;;5056499;28;20772;-53
2022/05/27 04:48:18;;;;;;;9.57;2.57;;;12.70;99.90;;;;;;5073406;28;20410;-49
2022/05/27 04:50:44;;;;;;;11.50;2.58;;;12.70;99.90;;;;;;5072762;28;20398;-52
2022/05/27 04:53:10;;;;;;;8.55;2.30;;;12.70;99.90;;;;;;5051761;28;20422;-53
2022/05/27 04:55:38;;;;;;;11.23;2.42;;;12.70;99.90;;;;;;5050125;28;20404;-51
2022/05/27 04:58:05;;;;;;;10.23;2.63;;;12.70;99.90;;;;;;5067079;28;20383;-50
2022/05/27 05:00:35;;;;;;;12.25;2.40;;;12.70;99.90;;;;;;5057904;28;20416;-53
2022/05/27 05:03:01;;;;;;;8.25;2.10;;;12.60;99.90;;;;;;5087569;28;20681;-49
2022/05/27 05:05:29;;;;;;;9.90;2.55;;;12.70;99.90;;;;;;5069623;28;20402;-49
2022/05/27 05:07:59;;;;;;;6.85;2.28;;;12.70;99.90;;;;;;5067368;28;20535;-54
2022/05/27 05:10:25;;;;;;;7.95;2.00;;;12.70;99.90;;;;;;5068038;28;20405;-52
2022/05/27 05:12:51;;;;;;;7.57;2.08;;;12.70;99.90;;;;;;5086162;28;20716;-52
2022/05/27 05:15:19;;;;;;;6.17;1.90;;;12.70;99.90;;;;;;5088314;28;20500;-54
2022/05/27 05:17:44;;;;;;;8.82;2.40;;;12.70;99.90;;;;;;5072045;28;20406;-54
2022/05/27 05:20:12;;;;;;;9.05;2.38;;;12.80;99.90;;;;;;5071554;28;20760;-52
2022/05/27 05:22:38;;;;;;;7.35;1.80;;;12.80;99.90;;;;;;5072170;28;20378;-52
2022/05/27 05:25:05;;;;;;;6.72;1.92;;;12.80;99.90;;;;;;5071112;28;20463;-54
2022/05/27 05:27:30;;;;;;;6.82;2.00;;;12.80;99.90;;;;;;5087779;28;20389;-53
2022/05/27 05:29:57;;;;;;;10.47;2.37;;;12.90;99.90;;;;;;5071297;28;20374;-55
2022/05/27 05:32:23;;;;;;;5.82;1.98;;;12.90;99.90;;;;;;5088511;28;20378;-51
2022/05/27 05:34:49;;;;;;;7.22;2.10;;;12.90;99.90;;;;;;5071423;28;20389;-56
2022/05/27 05:37:15;;;;;;;8.30;2.77;;;12.90;99.90;;;;;;5073264;28;20488;-53
2022/05/27 05:39:42;;;;;;;6.70;1.88;;;12.90;99.90;;;;;;5091334;28;20740;-56
2022/05/27 05:42:08;;;;;;;7.47;2.23;;;12.90;99.90;;;;;;5071108;28;20468;-54
2022/05/27 05:44:35;;;;;;;6.85;2.25;;;13.00;99.90;;;;;;5070950;28;20468;-54
2022/05/27 05:47:01;;;;;;;11.33;2.10;;;13.00;99.90;;;;;;5088835;28;20431;-52
2022/05/27 05:49:26;;;;;;;8.70;2.28;;;13.10;99.90;;;;;;5069603;28;20378;-54
2022/05/27 05:51:54;;;;;;;7.03;2.00;;;13.10;99.90;;;;;;5069240;28;20408;-53
2022/05/27 05:54:20;;;;;;;9.73;2.27;;;13.20;99.90;;;;;;5067002;28;20622;-53
2022/05/27 05:56:50;;;;;;;7.00;2.13;;;13.10;99.90;;;;;;5082751;28;20868;-55
2022/05/27 05:59:17;;;;;;;7.77;2.23;;;13.20;99.90;;;;;;5063936;28;20433;-54
2022/05/27 06:01:43;;;;;;;9.40;2.88;;;13.20;99.90;;;;;;5061884;28;20418;-53
2022/05/27 06:04:09;;;;;;;9.95;2.53;;;13.20;99.90;;;;;;5043128;28;20380;-51
2022/05/27 06:06:35;;;;;;;8.70;2.25;;;13.10;99.90;;;;;;5043074;28;20669;-55
2022/05/27 06:09:01;;;;;;;11.52;2.58;;;13.10;99.90;;;;;;5044818;28;20478;-52
2022/05/27 06:11:27;;;;;;;11.68;2.63;;;13.20;99.90;;;;;;5043570;28;20449;-52
2022/05/27 06:13:52;;;;;;;12.10;2.60;;;13.20;99.90;;;;;;5061870;28;20723;-51
2022/05/27 06:16:18;;;;;;;9.77;2.77;;;13.20;99.90;;;;;;5045340;28;20404;-55
2022/05/27 06:18:43;;;;;;;9.47;2.50;;;13.30;99.90;;;;;;5063944;28;20387;-52
2022/05/27 06:21:09;;;;;;;10.57;3.00;;;13.30;99.90;;;;;;5045858;28;20415;-52
2022/05/27 06:23:35;;;;;;;9.68;2.20;;;13.30;99.90;;;;;;5044376;28;20384;-55
2022/05/27 06:26:05;;;;;;;9.88;2.53;;;13.30;99.90;;;;;;5044726;28;20380;-52
2022/05/27 06:36:45;;;;;;;11.48;2.60;;;13.40;99.90;;;;;;5065073;28;20676;-55
2022/05/27 06:39:12;;;;;;;12.40;2.67;;;13.50;99.90;;;;;;5045827;28;20403;-54
2022/05/27 06:41:38;;;;;;;9.65;2.65;;;13.40;99.90;;;;;;5061186;28;20391;-52
2022/05/27 06:44:05;;;;;;;11.45;2.33;;;13.30;99.90;;;;;;5042279;28;20511;-51
2022/05/27 06:46:32;;;;;;;7.63;2.95;;;13.20;99.90;;;;;;5040234;28;20550;-49
2022/05/27 06:48:58;;;;;;;11.10;2.58;;;13.20;99.90;;;;;;5037076;28;20407;-53
2022/05/27 06:51:24;;;;;;;8.98;2.50;;;13.20;99.90;;;;;;5055990;28;20503;-53
2022/05/27 06:53:50;;;;;;;10.97;2.87;;;13.20;99.90;;;;;;5037105;28;20453;-53
2022/05/27 06:56:16;;;;;;;9.30;2.00;;;13.20;99.90;;;;;;5039672;28;20388;-55
2022/05/27 06:58:42;;;;;;;7.87;1.93;;;13.30;99.90;;;;;;5040264;28;20368;-50
2022/05/27 07:01:09;;;;;;;8.52;2.58;;;13.40;99.90;;;;;;5053448;28;20704;-56
2022/05/27 07:03:37;;;;;;;8.95;2.55;;;13.40;99.90;;;;;;5061130;28;20750;-51
2022/05/27 07:06:05;;;;;;;11.10;2.55;;;13.40;99.90;;;;;;5061349;28;20489;-49
2022/05/27 07:08:31;;;;;;;11.30;2.70;;;13.50;99.90;;;;;;5060529;28;20373;-55
2022/05/27 07:10:57;;;;;;;10.40;2.83;;;13.60;99.90;;;;;;5062112;28;20694;-54
2022/05/27 07:13:22;;;;;;;10.40;2.70;;;13.60;99.90;;;;;;5079166;28;20484;-54
2022/05/27 07:15:48;;;;;;;10.70;2.58;;;13.60;99.90;;;;;;5063092;28;20390;-56
2022/05/27 07:18:13;;;;;;;10.07;3.07;;;13.60;99.90;;;;;;5063605;28;20382;-53
2022/05/27 07:20:41;;;;;;;9.43;2.93;;;13.70;99.90;;;;;;5063850;28;20418;-49
2022/05/27 07:23:07;;;;;;;9.98;2.90;;;13.80;99.90;;;;;;5064632;28;20382;-49
2022/05/27 07:25:34;;;;;;;8.38;2.58;;;13.80;99.90;;;;;;5064851;28;20674;-53
2022/05/27 07:28:00;;;;;;;12.10;2.90;;;13.90;99.90;;;;;;5061402;28;20804;-55
2022/05/27 07:30:26;;;;;;;12.10;2.43;;;13.90;99.90;;;;;;5062306;28;20382;-54
2022/05/27 07:32:52;;;;;;;10.73;3.03;;;14.00;99.90;;;;;;5079821;28;20386;-52
2022/05/27 07:35:17;;;;;;;10.50;2.30;;;14.00;99.90;;;;;;5079122;28;20661;-50
2022/05/27 07:37:43;;;;;;;8.57;2.42;;;13.90;99.90;;;;;;5076888;28;20941;-55
2022/05/27 07:40:09;;;;;;;9.10;2.23;;;13.80;99.90;;;;;;5077718;28;20563;-55
2022/05/27 07:42:34;;;;;;;7.97;2.30;;;13.70;99.90;;;;;;5058114;28;20417;-54
2022/05/27 07:45:00;;;;;;;14.73;2.70;;;13.70;99.90;;;;;;5075229;28;20421;-52
2022/05/27 07:47:25;;;;;;;8.32;2.80;;;13.80;99.90;;;;;;5056022;28;20609;-52
2022/05/27 07:49:51;;;;;;;6.97;2.40;;;13.90;99.90;;;;;;5057380;28;20406;-51
2022/05/27 07:52:16;;;;;;;12.03;2.37;;;14.00;99.90;;;;;;5057437;28;20386;-56
2022/05/27 07:54:42;;;;;;;10.60;2.30;;;14.10;99.90;;;;;;5056321;28;20462;-54
2022/05/27 07:57:25;;;;;;;7.63;2.20;;;14.10;99.90;;;;;;5073942;28;20628;-53
2022/05/27 08:00:06;;;;;;;8.23;2.42;;;14.20;99.90;;;;;;5055343;28;20866;-54
2022/05/27 08:02:32;;;;;;;8.52;2.22;;;14.20;99.90;;;;;;5057411;28;20971;-54
2022/05/27 08:04:58;;;;;;;8.87;2.50;;;14.20;99.90;;;;;;5040143;28;20421;-54
2022/05/27 08:07:26;;;;;;;12.33;3.00;;;14.10;99.90;;;;;;5040635;28;20514;-56
2022/05/27 08:09:52;;;;;;;9.95;2.47;;;14.10;99.90;;;;;;5040010;28;20383;-51
2022/05/27 08:12:18;;;;;;;10.68;2.45;;;14.10;99.90;;;;;;5042344;28;20671;-53
2022/05/27 08:14:43;;;;;;;7.70;2.35;;;14.10;99.90;;;;;;5042265;28;20823;-52
2022/05/27 08:17:10;;;;;;;8.45;2.47;;;14.20;99.90;;;;;;5045651;28;20384;-56
2022/05/27 08:19:35;;;;;;;7.95;2.13;;;14.30;99.90;;;;;;5045362;28;20399;-52
2022/05/27 08:22:01;;;;;;;10.67;2.67;;;14.50;99.90;;;;;;5044386;28;20620;-54
2022/05/27 08:24:27;;;;;;;8.38;2.40;;;14.50;99.90;;;;;;5065174;28;20644;-50
2022/05/27 08:26:53;;;;;;;7.60;2.20;;;14.60;99.90;;;;;;5046189;28;20865;-56
2022/05/27 08:29:18;;;;;;;9.45;2.72;;;14.60;99.90;;;;;;5046742;28;20392;-49
2022/05/27 08:31:44;;;;;;;11.77;2.67;;;14.70;99.90;;;;;;5045253;28;20388;-52
2022/05/27 08:39:46;;;;;;;12.85;2.60;;;14.30;99.90;;;;;;5063098;28;20422;-52
2022/05/27 08:42:41;;;;;;;13.07;2.83;;;14.30;99.90;;;;;;5044114;28;20649;-54
2022/05/27 08:45:32;;;;;;;10.10;2.58;;;14.30;99.90;;;;;;5062383;28;20424;-51
2022/05/27 08:48:03;;;;;;;9.60;2.47;;;14.40;99.90;;;;;;5033445;28;20751;-51
2022/05/27 08:50:35;;;;;;;8.15;2.33;;;14.50;99.90;;;;;;5063678;28;20457;-51
2022/05/27 08:53:46;;;;;;;6.65;2.33;;;14.50;99.90;;;;;;5043462;28;20380;-49
2022/05/27 08:59:36;;;;;;;10.13;2.40;;;14.70;99.90;;;;;;5063793;28;20398;-51
2022/05/27 09:02:20;;;;;;;7.68;2.53;;;14.80;99.90;;;;;;5062325;28;20711;-52
2022/05/27 09:05:25;;;;;;;8.50;2.28;;;14.70;99.90;;;;;;5063823;28;20397;-56
2022/05/27 09:08:00;;;;;;;7.75;2.30;;;14.70;99.90;;;;;;4964366;28;20398;-51
2022/05/27 09:10:45;;;;;;;9.77;2.47;;;14.80;99.90;;;;;;5070391;28;20727;-52
2022/05/27 09:13:27;;;;;;;8.45;2.30;;;14.80;99.90;;;;;;5066235;28;20666;-53
2022/05/27 09:16:16;;;;;;;8.90;2.47;;;14.70;99.90;;;;;;5066549;28;20378;-53
2022/05/27 09:19:13;;;;;;;8.15;2.92;;;14.80;99.90;;;;;;5066289;28;20370;-51
2022/05/27 09:22:02;;;;;;;8.07;2.50;;;14.90;99.90;;;;;;5062624;28;20677;-52
2022/05/27 09:24:47;;;;;;;10.20;2.72;;;15.00;99.90;;;;;;5060175;28;20473;-53
2022/05/27 09:27:24;;;;;;;10.40;2.90;;;15.10;99.90;;;;;;5061753;28;20385;-54
2022/05/27 09:30:04;;;;;;;8.07;2.40;;;15.00;99.90;;;;;;5060306;28;20494;-53
2022/05/27 09:32:31;;;;;;;9.43;2.67;;;14.90;99.90;;;;;;5060404;28;20426;-53
2022/05/27 09:35:02;;;;;;;11.23;2.63;;;15.00;99.90;;;;;;5061585;28;20512;-59
2022/05/27 09:37:35;;;;;;;8.00;2.87;;;14.80;99.90;;;;;;5064478;28;20406;-58
2022/05/27 09:40:06;;;;;;;12.40;2.92;;;14.90;99.90;;;;;;5084665;28;20413;-60
2022/05/27 09:42:44;;;;;;;8.95;3.20;;;14.80;99.90;;;;;;5070217;28;20378;-60
2022/05/27 09:45:11;;;;;;;11.00;3.55;;;14.90;99.90;;;;;;5088958;28;20677;-60
2022/05/27 09:47:38;;;;;;;10.38;3.15;;;14.90;99.90;;;;;;5068204;28;20378;-60
2022/05/27 09:50:20;;;;;;;15.05;3.40;;;15.00;99.90;;;;;;5085921;28;20398;-61
2022/05/27 09:52:47;;;;;;;10.70;2.75;;;15.00;99.90;;;;;;5068129;28;20397;-60
2022/05/27 09:55:23;;;;;;;13.15;3.28;;;14.80;99.90;;;;;;5067438;28;20378;-60
2022/05/27 09:58:00;;;;;;;10.20;2.70;;;14.70;99.90;;;;;;5064838;28;20386;-50
2022/05/27 10:00:50;;;;;;;12.60;3.40;;;14.60;99.90;;;;;;5068140;28;20448;-54
2022/05/27 10:03:21;;;;;;;13.95;3.65;;;14.40;99.90;;;;;;5037995;28;20442;-52
2022/05/27 10:05:54;;;;;;;11.95;3.55;;;14.50;99.90;;;;;;5039720;28;20396;-56
2022/05/27 10:08:29;;;;;;;13.43;3.67;;;14.60;99.90;;;;;;5041028;28;20717;-51
2022/05/27 10:11:07;;;;;;;11.07;3.30;;;14.70;99.90;;;;;;5043527;28;20394;-51
2022/05/27 10:13:34;;;;;;;11.55;2.83;;;14.80;99.90;;;;;;5039348;28;20883;-52
2022/05/27 10:16:11;;;;;;;10.98;3.17;;;14.80;99.90;;;;;;5040035;28;20540;-51
2022/05/27 10:18:37;;;;;;;11.77;2.75;;;14.90;99.90;;;;;;5040084;28;20730;-54
2022/05/27 10:21:09;;;;;;;11.57;2.83;;;14.90;99.90;;;;;;5060061;28;20521;-53
2022/05/27 10:23:42;;;;;;;11.13;2.63;;;14.90;99.90;;;;;;5042944;28;20844;-54
2022/05/27 10:26:34;;;;;;;11.50;2.80;;;14.90;99.90;;;;;;5057198;28;20414;-51
2022/05/27 10:29:14;;;;;;;7.43;1.70;;;14.60;99.90;;;;;;5034429;28;20380;-52
2022/05/27 10:31:56;;;;;;;10.35;2.20;;;14.50;99.90;;;;;;5039583;28;20974;-55
2022/05/27 10:34:45;;;;;;;7.18;1.95;;;14.50;99.90;;;;;;5040593;28;20954;-54
2022/05/27 10:37:44;;;;;;;10.00;2.55;;;14.60;99.90;;;;;;5039603;28;20474;-52
2022/05/27 10:40:28;;;;;;;9.55;2.75;;;14.50;99.90;;;;;;5038637;28;20430;-55
2022/05/27 10:42:58;;;;;;;12.10;3.35;;;14.60;99.90;;;;;;5055268;28;20371;-50
2022/05/27 10:45:32;;;;;;;10.02;3.15;;;14.80;99.90;;;;;;5039432;28;20387;-54
2022/05/27 10:48:11;;;;;;;9.57;3.00;;;14.80;99.90;;;;;;5040572;28;20460;-54
2022/05/27 10:50:47;;;;;;;10.10;2.83;;;14.80;99.90;;;;;;5058566;28;20413;-51
2022/05/27 10:53:32;;;;;;;12.52;2.95;;;14.90;99.90;;;;;;5041592;28;20387;-53
2022/05/27 10:56:22;;;;;;;12.35;2.60;;;14.70;99.90;;;;;;5058156;28;20384;-56
2022/05/27 11:02:04;;;;;;;10.40;3.33;;;13.50;99.90;;;;;;5067148;28;20496;-53
2022/05/27 11:04:48;;;;;;;11.48;3.30;;;13.20;99.90;;;;;;5048690;28;20392;-54
2022/05/27 11:07:23;;;;;;;14.38;4.28;;;13.00;99.90;;;;;;5050030;28;20494;-53
2022/05/27 11:10:00;;;;;;;10.95;3.15;;;13.10;99.90;;;;;;5065814;28;20459;-53
2022/05/27 11:16:12;;;;;;;13.65;3.78;;;13.40;99.90;;;;;;5066618;28;20370;-54
2022/05/27 11:18:53;;;;;;;14.02;3.58;;;13.60;99.90;;;;;;5049363;28;20416;-54
2022/05/27 11:21:40;;;;;;;13.93;3.60;;;13.80;99.90;;;;;;5066134;28;20419;-56
2022/05/27 11:24:33;;;;;;;11.75;3.45;;;14.10;99.90;;;;;;5048369;28;20844;-54
2022/05/27 11:27:17;;;;;;;12.43;3.33;;;14.10;99.90;;;;;;4996179;28;20440;-53
2022/05/27 11:29:48;;;;;;;13.27;3.50;;;14.10;99.90;;;;;;5061805;28;21007;-53
2022/05/27 11:32:21;;;;;;;11.52;3.13;;;14.00;99.90;;;;;;5046466;28;20395;-52
2022/05/27 11:34:47;;;;;;;13.55;3.30;;;13.80;99.90;;;;;;5048333;28;20687;-55
2022/05/27 11:37:33;;;;;;;10.23;3.10;;;13.40;99.90;;;;;;5049917;28;20815;-54
2022/05/27 11:40:25;;;;;;;9.85;3.17;;;13.20;99.90;;;;;;5049584;28;20400;-51
2022/05/27 11:43:15;;;;;;;12.07;3.03;;;13.40;99.90;;;;;;5050441;28;20387;-52
2022/05/27 11:46:10;;;;;;;10.90;2.97;;;13.60;99.90;;;;;;5072109;28;20553;-56
2022/05/27 11:49:19;;;;;;;11.75;2.90;;;13.50;99.90;;;;;;5054451;28;20430;-53
2022/05/27 11:52:14;;;;;;;13.30;3.22;;;13.90;99.90;;;;;;5053620;28;20399;-52
2022/05/27 11:55:08;;;;;;;23.38;4.72;;;13.80;99.90;;;;;;5052060;28;21076;-52
2022/05/27 11:57:49;;;;;;;16.73;4.10;;;13.50;99.90;;;;;;5067500;28;20861;-55
2022/05/27 12:00:18;;;;;;;15.57;3.45;;;13.10;99.90;;;;;;5067223;28;20830;-55
2022/05/27 12:03:04;;;;;;;14.85;3.63;;;13.10;99.90;;;;;;5050642;28;20388;-57
2022/05/27 12:06:04;;;;;;;13.80;3.25;;;13.20;99.90;;;;;;5051431;28;20388;-56
2022/05/27 12:08:53;;;;;;;13.40;3.53;;;13.30;99.90;;;;;;5051862;28;20442;-52
2022/05/27 12:11:24;;;;;;;11.57;3.22;;;13.70;99.90;;;;;;5051612;28;20469;-54
2022/05/27 12:13:55;;;;;;;14.60;3.50;;;13.90;99.90;;;;;;5069983;28;20387;-54
2022/05/27 12:16:29;;;;;;;11.93;3.65;;;14.00;99.90;;;;;;5072208;28;20391;-56
2022/05/27 12:19:00;;;;;;;15.88;4.18;;;13.80;99.90;;;;;;5053982;28;20434;-56
2022/05/27 12:21:34;;;;;;;12.73;3.28;;;13.70;99.90;;;;;;5052535;28;20411;-54
2022/05/27 12:24:24;;;;;;;15.50;3.90;;;13.80;99.90;;;;;;5052136;28;20461;-54
2022/05/27 12:26:55;;;;;;;14.10;3.65;;;14.10;99.90;;;;;;5050892;28;20376;-56
2022/05/27 12:29:23;;;;;;;14.57;3.03;;;14.50;99.90;;;;;;5049130;28;20388;-53
2022/05/27 12:31:50;;;;;;;9.75;2.92;;;14.80;99.90;;;;;;5050263;28;20407;-52
2022/05/27 12:34:28;;;;;;;12.32;3.47;;;14.80;99.90;;;;;;5049135;28;20415;-56
2022/05/27 12:36:58;;;;;;;12.52;2.90;;;14.90;99.90;;;;;;5048487;28;20403;-51
2022/05/27 12:39:28;;;;;;;10.45;2.80;;;14.80;99.90;;;;;;5049953;28;20850;-52
2022/05/27 12:42:11;;;;;;;11.90;2.92;;;15.00;99.90;;;;;;5051426;28;20414;-56
2022/05/27 12:44:38;;;;;;;11.23;3.30;;;15.10;99.90;;;;;;5068960;28;20383;-55
2022/05/27 12:47:05;;;;;;;9.07;2.70;;;15.20;99.90;;;;;;5068855;28;20380;-52
2022/05/27 12:49:39;;;;;;;12.68;2.53;;;15.20;99.90;;;;;;5068240;28;20474;-54
2022/05/27 12:52:27;;;;;;;14.02;2.97;;;15.20;99.90;;;;;;5068729;28;20457;-51
2022/05/27 12:54:53;;;;;;;11.95;3.28;;;15.30;99.90;;;;;;5039904;28;20395;-54
2022/05/27 13:03:36;;;;;;;9.18;2.10;;;15.50;99.90;;;;;;5069503;28;20928;-55
2022/05/27 13:06:19;;;;;;;8.20;2.50;;;15.40;99.90;;;;;;5050962;28;20395;-53
2022/05/27 13:08:46;;;;;;;13.43;2.80;;;15.10;99.90;;;;;;5050354;28;20396;-56
2022/05/27 13:11:21;;;;;;;9.98;2.50;;;15.00;99.90;;;;;;5066183;28;20391;-52
2022/05/27 13:14:12;;;;;;;9.65;2.22;;;15.30;99.90;;;;;;5061203;28;20384;-55
2022/05/27 13:16:44;;;;;;;7.85;2.10;;;15.40;99.90;;;;;;5059042;28;20391;-51
2022/05/27 13:19:29;;;;;;;12.10;3.10;;;15.20;99.90;;;;;;5043219;28;20383;-52
2022/05/27 13:21:58;;;;;;;10.82;2.53;;;15.20;99.90;;;;;;5062040;28;20483;-56
2022/05/27 13:24:32;;;;;;;11.05;2.92;;;15.30;99.90;;;;;;5067175;28;20444;-57
2022/05/27 13:27:10;;;;;;;9.68;2.58;;;15.20;99.90;;;;;;5050019;28;20398;-55
2022/05/27 13:29:54;;;;;;;11.73;3.23;;;15.10;99.90;;;;;;5066402;28;20383;-54
2022/05/27 13:32:27;;;;;;;12.35;3.38;;;14.90;99.90;;;;;;5046938;28;20384;-52
2022/05/27 13:35:00;;;;;;;8.77;2.63;;;15.10;99.90;;;;;;5047599;28;20400;-49
2022/05/27 13:37:35;;;;;;;11.40;2.63;;;15.60;99.90;;;;;;5048293;28;20487;-52
2022/05/27 13:40:13;;;;;;;10.70;2.30;;;15.90;99.90;;;;;;5049671;28;20434;-55
2022/05/27 13:42:46;;;;;;;12.90;2.83;;;16.00;99.90;;;;;;5065768;28;20409;-53